createdAt,value
2023-02-24T00:02:01.520Z,88.70
2023-02-24T00:04:35.389Z,88.50
2023-02-24T00:07:03.084Z,88.60
2023-02-24T00:09:31.653Z,88.80
2023-02-24T00:12:03.008Z,88.90
2023-02-24T00:14:34.715Z,88.60
2023-02-24T00:17:03.158Z,88.80
2023-02-24T00:19:32.878Z,88.40
2023-02-24T00:22:02.375Z,89.30
2023-02-24T00:24:30.767Z,90.00
2023-02-24T00:27:00.654Z,90.00
2023-02-24T00:29:29.996Z,89.80
2023-02-24T00:32:03.963Z,89.60
2023-02-24T00:34:35.467Z,89.80
2023-02-24T00:37:03.535Z,89.80
2023-02-24T00:39:34.194Z,90.00
2023-02-24T00:42:05.169Z,89.70
2023-02-24T00:44:35.234Z,90.20
2023-02-24T00:47:05.027Z,90.20
2023-02-24T00:49:42.780Z,90.00
2023-02-24T00:52:19.727Z,89.90
2023-02-24T00:54:49.733Z,89.80
2023-02-24T00:57:20.030Z,90.00
2023-02-24T00:59:47.949Z,89.70
2023-02-24T01:02:15.956Z,89.80
2023-02-24T01:04:45.623Z,89.60
2023-02-24T01:07:14.869Z,90.00
2023-02-24T01:09:44.505Z,90.00
2023-02-24T01:12:32.257Z,90.00
2023-02-24T01:15:00.032Z,90.10
2023-02-24T01:17:27.719Z,90.10
2023-02-24T01:20:00.433Z,90.30
2023-02-24T01:22:28.056Z,90.30
2023-02-24T01:24:55.916Z,90.30
2023-02-24T01:27:23.593Z,90.30
2023-02-24T01:29:51.472Z,90.20
2023-02-24T01:32:21.242Z,90.20
2023-02-24T01:34:52.319Z,90.00
2023-02-24T01:37:21.293Z,90.00
2023-02-24T01:39:50.302Z,90.10
2023-02-24T01:42:21.453Z,90.20
2023-02-24T01:44:52.191Z,90.10
2023-02-24T01:47:21.528Z,90.40
2023-02-24T01:49:52.971Z,90.40
2023-02-24T01:52:26.758Z,90.50
2023-02-24T01:55:10.776Z,90.70
2023-02-24T01:57:39.180Z,91.10
2023-02-24T02:00:20.755Z,91.10
2023-02-24T02:02:53.297Z,91.30
2023-02-24T02:05:21.314Z,91.70
2023-02-24T02:07:50.324Z,91.50
2023-02-24T02:10:18.678Z,91.70
2023-02-24T02:12:47.026Z,91.80
2023-02-24T02:15:20.760Z,92.30
2023-02-24T02:17:48.481Z,92.00
2023-02-24T02:20:56.829Z,92.10
2023-02-24T02:23:28.776Z,92.00
2023-02-24T02:25:59.127Z,92.10
2023-02-24T02:28:50.759Z,92.30
2023-02-24T02:31:38.112Z,92.20
2023-02-24T02:34:09.891Z,91.90
2023-02-24T02:37:01.669Z,92.20
2023-02-24T02:39:44.711Z,92.20
2023-02-24T02:42:30.556Z,92.10
2023-02-24T02:45:05.430Z,91.90
2023-02-24T02:47:41.409Z,92.10
2023-02-24T02:50:30.245Z,92.30
2023-02-24T02:53:14.589Z,92.20
2023-02-24T02:56:01.439Z,92.20
2023-02-24T02:58:35.284Z,92.20
2023-02-24T03:01:07.380Z,92.10
2023-02-24T03:03:42.861Z,92.10
2023-02-24T03:06:16.490Z,92.20
2023-02-24T03:08:53.924Z,92.10
2023-02-24T03:11:22.877Z,92.40
2023-02-24T03:13:56.341Z,92.40
2023-02-24T03:16:27.151Z,92.50
2023-02-24T03:19:02.347Z,92.80
2023-02-24T03:21:40.810Z,93.00
2023-02-24T03:24:09.876Z,93.10
2023-02-24T03:26:51.238Z,93.50
2023-02-24T03:29:48.883Z,93.70
2023-02-24T03:32:36.770Z,94.10
2023-02-24T03:35:20.641Z,94.80
2023-02-24T03:37:50.149Z,95.40
2023-02-24T03:40:20.985Z,95.40
2023-02-24T03:42:52.396Z,95.90
2023-02-24T03:45:23.223Z,95.70
2023-02-24T03:47:54.230Z,95.20
2023-02-24T03:50:22.648Z,95.50
2023-02-24T03:53:18.754Z,95.00
2023-02-24T03:56:22.451Z,95.40
2023-02-24T03:59:03.095Z,95.60
2023-02-24T04:01:42.133Z,95.50
2023-02-24T04:04:19.041Z,95.70
2023-02-24T04:07:06.437Z,96.20
2023-02-24T04:09:52.104Z,96.10
2023-02-24T04:12:28.216Z,96.00
2023-02-24T04:15:18.363Z,96.10
2023-02-24T04:17:53.718Z,96.10
2023-02-24T04:20:28.128Z,95.60
2023-02-24T04:23:10.779Z,95.70
2023-02-24T04:25:40.408Z,96.10
2023-02-24T04:28:10.043Z,95.70
2023-02-24T04:30:44.414Z,95.70
2023-02-24T04:33:13.738Z,96.00
2023-02-24T04:35:45.321Z,95.80
2023-02-24T04:38:13.188Z,95.60
2023-02-24T04:40:41.024Z,95.40
2023-02-24T04:43:09.245Z,95.60
2023-02-24T04:45:40.192Z,95.30
2023-02-24T04:48:13.151Z,95.50
2023-02-24T04:50:43.077Z,95.40
2023-02-24T04:53:15.180Z,95.50
2023-02-24T04:55:48.913Z,95.70
2023-02-24T04:58:22.041Z,95.30
2023-02-24T05:00:56.045Z,95.90
2023-02-24T05:03:28.395Z,95.90
2023-02-24T05:06:00.228Z,96.30
2023-02-24T05:08:29.932Z,96.70
2023-02-24T05:10:58.906Z,96.30
2023-02-24T05:13:28.530Z,96.60
2023-02-24T05:15:57.802Z,96.90
2023-02-24T05:18:26.105Z,97.20
2023-02-24T05:21:14.107Z,98.10
2023-02-24T05:23:45.206Z,97.90
2023-02-24T05:26:17.264Z,98.10
2023-02-24T05:28:49.465Z,98.20
2023-02-24T05:31:20.582Z,98.10
2023-02-24T05:33:54.740Z,98.50
2023-02-24T05:36:23.841Z,98.50
2023-02-24T05:39:06.313Z,98.70
2023-02-24T05:41:39.648Z,98.30
2023-02-24T05:44:11.365Z,98.40
2023-02-24T05:46:41.361Z,98.70
2023-02-24T05:49:14.873Z,99.60
2023-02-24T05:51:55.007Z,99.50
2023-02-24T05:54:31.539Z,99.90
2023-02-24T05:57:15.458Z,99.70
2023-02-24T05:59:44.749Z,99.90
2023-02-24T06:02:15.092Z,99.90
2023-02-24T06:04:51.623Z,99.10
2023-02-24T06:07:25.374Z,98.90
2023-02-24T06:09:57.199Z,98.60
2023-02-24T06:12:33.960Z,98.50
2023-02-24T06:15:07.646Z,98.70
2023-02-24T06:17:35.525Z,98.60
2023-02-24T06:20:13.636Z,99.00
2023-02-24T06:22:44.784Z,98.50
2023-02-24T06:25:12.564Z,98.40
2023-02-24T06:27:40.413Z,98.70
2023-02-24T06:30:10.479Z,98.40
2023-02-24T06:32:38.619Z,98.70
2023-02-24T06:35:06.531Z,99.10
2023-02-24T06:37:35.977Z,98.60
2023-02-24T06:40:09.447Z,98.60
2023-02-24T06:42:39.307Z,98.80
2023-02-24T06:45:08.497Z,98.60
2023-02-24T06:47:36.289Z,99.40
2023-02-24T06:50:06.990Z,99.70
2023-02-24T06:52:34.619Z,99.90
2023-02-24T06:55:04.837Z,99.90
2023-02-24T06:57:34.776Z,99.90
2023-02-24T07:00:17.092Z,99.90
2023-02-24T07:02:45.866Z,99.90
2023-02-24T07:05:14.837Z,99.90
2023-02-24T07:07:46.052Z,99.90
2023-02-24T07:10:13.852Z,99.90
2023-02-24T07:12:41.627Z,99.90
2023-02-24T07:15:09.810Z,99.90
2023-02-24T07:17:37.625Z,99.90
2023-02-24T07:20:11.702Z,99.90
2023-02-24T07:22:39.435Z,99.90
2023-02-24T07:25:07.373Z,99.90
2023-02-24T07:27:36.828Z,99.90
2023-02-24T07:30:06.679Z,99.90
2023-02-24T07:32:34.365Z,99.90
2023-02-24T07:35:01.963Z,99.90
2023-02-24T07:37:31.900Z,99.90
2023-02-24T07:39:59.508Z,99.90
2023-02-24T07:42:30.633Z,99.90
2023-02-24T07:44:58.292Z,99.90
2023-02-24T07:47:26.626Z,99.90
2023-02-24T07:49:55.572Z,99.90
2023-02-24T07:52:23.322Z,99.90
2023-02-24T07:54:51.123Z,99.90
2023-02-24T07:57:19.070Z,99.90
2023-02-24T07:59:47.759Z,99.90
2023-02-24T08:02:16.826Z,99.90
2023-02-24T08:04:51.558Z,99.90
2023-02-24T08:07:25.179Z,99.90
2023-02-24T08:10:12.022Z,99.90
2023-02-24T08:12:44.396Z,99.90
2023-02-24T08:15:23.710Z,99.90
2023-02-24T08:17:53.745Z,99.90
2023-02-24T08:20:21.970Z,99.90
2023-02-24T08:22:54.142Z,99.90
2023-02-24T08:25:38.469Z,99.90
2023-02-24T08:28:11.987Z,99.90
2023-02-24T08:30:47.770Z,99.90
2023-02-24T08:33:21.396Z,99.90
2023-02-24T08:36:01.320Z,99.90
2023-02-24T08:38:40.104Z,99.90
2023-02-24T08:41:21.110Z,99.90
2023-02-24T08:43:49.837Z,99.90
2023-02-24T08:46:26.868Z,99.90
2023-02-24T08:49:00.693Z,99.90
2023-02-24T08:51:34.665Z,99.90
2023-02-24T08:54:11.165Z,99.90
2023-02-24T08:56:43.844Z,99.90
2023-02-24T08:59:29.351Z,99.90
2023-02-24T09:02:17.149Z,99.90
2023-02-24T09:04:47.095Z,99.90
2023-02-24T09:07:24.267Z,99.90
2023-02-24T09:09:56.395Z,99.90
2023-02-24T09:12:28.865Z,99.90
2023-02-24T09:14:58.368Z,99.90
2023-02-24T09:17:42.966Z,99.90
2023-02-24T09:20:27.196Z,99.90
2023-02-24T09:23:09.088Z,99.90
2023-02-24T09:25:44.054Z,99.90
2023-02-24T09:28:17.764Z,99.90
2023-02-24T09:30:53.504Z,99.90
2023-02-24T09:33:27.352Z,99.90
2023-02-24T09:36:10.728Z,99.90
2023-02-24T09:39:06.375Z,99.90
2023-02-24T09:42:07.677Z,99.90
2023-02-24T09:44:45.179Z,99.80
2023-02-24T09:47:45.965Z,99.90
2023-02-24T09:50:38.288Z,99.90
2023-02-24T09:53:17.468Z,99.30
2023-02-24T09:56:03.977Z,99.60
2023-02-24T09:58:44.156Z,99.50
2023-02-24T10:01:43.193Z,99.70
2023-02-24T10:04:52.285Z,98.80
2023-02-24T10:07:38.590Z,99.90
2023-02-24T10:10:20.095Z,99.90
2023-02-24T10:13:30.491Z,99.80
2023-02-24T10:16:07.116Z,99.90
2023-02-24T10:19:01.419Z,99.90
2023-02-24T10:22:00.346Z,99.90
2023-02-24T10:24:47.663Z,99.70
2023-02-24T10:27:27.190Z,99.60
2023-02-24T10:30:05.471Z,98.80
2023-02-24T10:32:54.690Z,98.90
2023-02-24T10:35:26.187Z,98.60
2023-02-24T10:37:59.040Z,98.60
2023-02-24T10:40:43.994Z,98.10
2023-02-24T10:43:17.968Z,98.10
2023-02-24T10:45:47.706Z,96.60
2023-02-24T10:48:40.723Z,97.60
2023-02-24T10:51:32.063Z,98.80
2023-02-24T10:54:42.553Z,96.00
2023-02-24T10:57:18.445Z,97.00
2023-02-24T11:00:10.604Z,95.50
2023-02-24T11:03:08.310Z,96.00
2023-02-24T11:05:56.879Z,95.70
2023-02-24T11:08:37.051Z,95.50
2023-02-24T11:11:20.716Z,95.60
2023-02-24T11:14:18.545Z,94.30
2023-02-24T11:17:09.412Z,95.50
2023-02-24T11:19:56.157Z,94.50
2023-02-24T11:22:31.665Z,94.50
2023-02-24T11:25:07.206Z,93.90
2023-02-24T11:27:35.407Z,94.50
2023-02-24T11:30:26.250Z,93.30
2023-02-24T11:32:54.021Z,95.30
2023-02-24T11:35:48.227Z,94.20
2023-02-24T11:38:28.897Z,94.00
2023-02-24T11:41:22.176Z,93.20
2023-02-24T11:44:01.161Z,93.90
2023-02-24T11:46:42.291Z,94.10
2023-02-24T11:49:40.188Z,94.40
2023-02-24T11:52:21.007Z,93.70
2023-02-24T11:54:53.664Z,94.30
2023-02-24T11:57:23.888Z,93.10
2023-02-24T12:00:26.881Z,93.10
2023-02-24T12:03:13.488Z,94.20
2023-02-24T12:05:45.055Z,93.40
2023-02-24T12:08:31.576Z,93.40
2023-02-24T12:11:05.842Z,93.30
2023-02-24T12:13:48.806Z,92.90
2023-02-24T12:16:40.860Z,93.00
2023-02-24T12:19:18.667Z,93.50
2023-02-24T12:21:59.759Z,93.70
2023-02-24T12:24:27.699Z,92.90
2023-02-24T12:27:02.790Z,92.60
2023-02-24T12:29:52.507Z,92.40
2023-02-24T12:32:43.158Z,91.20
2023-02-24T12:35:25.936Z,91.60
2023-02-24T12:38:20.929Z,92.30
2023-02-24T12:41:10.506Z,90.60
2023-02-24T12:43:38.078Z,91.70
2023-02-24T12:49:31.673Z,91.10
2023-02-24T12:52:07.631Z,91.40
2023-02-24T12:54:58.411Z,90.50
2023-02-24T12:57:41.498Z,91.40
2023-02-24T13:00:22.895Z,92.10
2023-02-24T13:03:25.482Z,92.90
2023-02-24T13:06:17.078Z,92.80
2023-02-24T13:09:27.867Z,91.90
2023-02-24T13:11:58.972Z,91.70
2023-02-24T13:14:32.016Z,92.40
2023-02-24T13:17:27.812Z,93.00
2023-02-24T13:19:56.326Z,94.00
2023-02-24T13:22:30.079Z,92.70
2023-02-24T13:25:21.748Z,93.70
2023-02-24T13:28:21.537Z,93.50
2023-02-24T13:31:02.796Z,93.30
2023-02-24T13:36:21.799Z,93.60
2023-02-24T13:39:07.871Z,94.30
2023-02-24T13:41:40.829Z,94.40
2023-02-24T13:44:20.972Z,94.30
2023-02-24T13:47:18.604Z,94.70
2023-02-24T13:50:07.310Z,94.60
2023-02-24T13:52:53.451Z,94.80
2023-02-24T13:55:44.400Z,94.90
2023-02-24T13:58:32.271Z,94.70
2023-02-24T14:01:06.301Z,94.80
2023-02-24T14:03:34.576Z,94.20
2023-02-24T14:06:03.455Z,94.90
2023-02-24T14:08:54.559Z,94.80
2023-02-24T14:11:27.101Z,94.30
2023-02-24T14:13:55.735Z,94.50
2023-02-24T14:16:44.348Z,94.60
2023-02-24T14:19:16.377Z,94.90
2023-02-24T14:21:50.846Z,94.90
2023-02-24T14:24:19.332Z,95.00
2023-02-24T14:26:55.527Z,94.80
2023-02-24T14:29:27.204Z,94.70
2023-02-24T14:31:56.453Z,95.10
2023-02-24T14:34:26.439Z,95.80
2023-02-24T14:36:59.160Z,95.40
2023-02-24T14:39:34.298Z,95.40
2023-02-24T14:42:08.881Z,95.60
2023-02-24T14:45:01.442Z,95.70
2023-02-24T14:47:33.497Z,96.00
2023-02-24T14:50:04.050Z,96.00
2023-02-24T14:52:32.284Z,96.00
2023-02-24T14:55:28.786Z,96.00
2023-02-24T14:58:03.669Z,96.10
2023-02-24T15:00:43.234Z,96.20
2023-02-24T15:03:19.532Z,96.30
2023-02-24T15:05:51.260Z,96.50
2023-02-24T15:08:44.087Z,96.60
2023-02-24T15:11:23.149Z,96.30
2023-02-24T15:13:57.483Z,96.10
2023-02-24T15:16:40.965Z,96.20
2023-02-24T15:19:32.766Z,96.20
2023-02-24T15:22:00.568Z,96.30
2023-02-24T15:24:34.317Z,96.70
2023-02-24T15:27:20.315Z,97.10
2023-02-24T15:30:24.999Z,97.10
2023-02-24T15:33:04.884Z,97.30
2023-02-24T15:35:34.814Z,97.80
2023-02-24T15:38:03.132Z,97.90
2023-02-24T15:40:31.840Z,98.00
2023-02-24T15:43:10.764Z,98.00
2023-02-24T15:45:40.091Z,98.10
2023-02-24T15:48:23.713Z,98.10
2023-02-24T15:50:54.824Z,98.00
2023-02-24T15:53:22.966Z,98.60
2023-02-24T15:55:51.359Z,98.50
2023-02-24T15:58:22.519Z,98.80
2023-02-24T16:00:52.763Z,99.20
2023-02-24T16:03:20.991Z,99.40
2023-02-24T16:05:49.212Z,99.30
2023-02-24T16:08:19.716Z,99.50
2023-02-24T16:10:50.463Z,99.50
2023-02-24T16:13:24.387Z,99.60
2023-02-24T16:15:52.323Z,99.80
2023-02-24T16:18:23.168Z,99.90
2023-02-24T16:20:54.818Z,99.90
2023-02-24T16:23:24.643Z,99.90
2023-02-24T16:25:57.150Z,99.90
2023-02-24T16:28:27.010Z,99.90
2023-02-24T16:31:14.149Z,99.90
2023-02-24T16:33:54.045Z,99.90
2023-02-24T16:36:26.316Z,99.90
2023-02-24T16:38:54.770Z,99.90
2023-02-24T16:41:23.495Z,99.90
2023-02-24T16:43:51.634Z,99.90
2023-02-24T16:46:23.191Z,99.90
2023-02-24T16:48:54.048Z,99.90
2023-02-24T16:51:23.276Z,99.90
2023-02-24T16:53:51.121Z,99.90
2023-02-24T16:56:19.508Z,99.90
2023-02-24T16:58:48.762Z,99.90
2023-02-24T17:01:21.800Z,99.90
2023-02-24T17:03:52.357Z,99.90
2023-02-24T17:06:22.414Z,99.90
2023-02-24T17:08:51.815Z,99.90
2023-02-24T17:11:30.278Z,99.90
2023-02-24T17:13:58.959Z,99.90
2023-02-24T17:16:27.414Z,99.90
2023-02-24T17:18:55.460Z,99.90
2023-02-24T17:21:23.381Z,99.90
2023-02-24T17:23:53.170Z,99.90
2023-02-24T17:26:21.878Z,99.90
2023-02-24T17:28:49.898Z,99.90
2023-02-24T17:31:18.868Z,99.90
2023-02-24T17:33:46.990Z,99.90
2023-02-24T17:36:14.931Z,99.90
2023-02-24T17:38:42.758Z,99.90
2023-02-24T17:41:10.952Z,99.90
2023-02-24T17:43:39.143Z,99.90
2023-02-24T17:46:08.365Z,99.90
2023-02-24T17:48:36.192Z,99.90
2023-02-24T17:51:04.556Z,99.90
2023-02-24T17:53:32.483Z,99.90
2023-02-24T17:56:07.803Z,99.90
2023-02-24T17:58:36.960Z,99.90
2023-02-24T18:01:06.703Z,99.90
2023-02-24T18:03:37.433Z,99.90
2023-02-24T18:06:09.835Z,99.90
2023-02-24T18:08:39.761Z,99.90
2023-02-24T18:11:11.372Z,99.90
2023-02-24T18:13:39.705Z,99.90
2023-02-24T18:16:13.613Z,99.90
2023-02-24T18:18:42.398Z,99.90
2023-02-24T18:21:10.685Z,99.90
2023-02-24T18:23:40.991Z,99.90
2023-02-24T18:26:12.528Z,99.90
2023-02-24T18:28:42.181Z,99.90
2023-02-24T18:31:16.316Z,99.90
2023-02-24T18:33:46.198Z,99.90
2023-02-24T18:36:16.205Z,99.90
2023-02-24T18:38:46.221Z,99.90
2023-02-24T18:41:19.070Z,99.90
2023-02-24T18:43:55.108Z,99.90
2023-02-24T18:46:24.852Z,99.90
2023-02-24T18:48:53.809Z,99.90
2023-02-24T18:51:26.375Z,99.90
2023-02-24T18:53:57.585Z,99.90
2023-02-24T18:56:28.375Z,99.90
2023-02-24T18:58:59.805Z,99.90
2023-02-24T19:01:36.914Z,99.90
2023-02-24T19:04:07.695Z,99.90
2023-02-24T19:06:37.131Z,99.90
2023-02-24T19:09:10.214Z,99.90
2023-02-24T19:11:41.355Z,99.90
2023-02-24T19:14:12.067Z,99.90
2023-02-24T19:16:41.429Z,99.90
2023-02-24T19:19:14.093Z,99.90
2023-02-24T19:21:45.658Z,99.90
2023-02-24T19:24:14.898Z,99.90
2023-02-24T19:26:46.457Z,99.90
2023-02-24T19:29:16.122Z,99.90
2023-02-24T19:31:46.638Z,99.90
2023-02-24T19:34:15.725Z,99.90
2023-02-24T19:36:44.218Z,99.90
2023-02-24T19:39:15.328Z,99.90
2023-02-24T19:41:44.934Z,99.90
2023-02-24T19:44:13.543Z,99.90
2023-02-24T19:46:44.046Z,99.90
2023-02-24T19:49:14.159Z,99.90
2023-02-24T19:51:46.645Z,99.90
2023-02-24T19:54:17.543Z,99.90
2023-02-24T19:56:46.376Z,99.90
2023-02-24T19:59:15.690Z,99.90
2023-02-24T20:01:45.671Z,99.90
2023-02-24T20:04:14.492Z,99.90
2023-02-24T20:06:46.057Z,99.90
2023-02-24T20:09:22.243Z,99.90
2023-02-24T20:11:54.909Z,99.90
2023-02-24T20:14:23.415Z,99.90
2023-02-24T20:16:51.750Z,99.90
2023-02-24T20:19:20.180Z,99.90
2023-02-24T20:21:51.548Z,99.90
2023-02-24T20:24:21.801Z,99.90
2023-02-24T20:26:51.704Z,99.90
2023-02-24T20:29:25.585Z,99.90
2023-02-24T20:31:54.153Z,99.90
2023-02-24T20:34:23.358Z,99.90
2023-02-24T20:36:52.254Z,99.90
2023-02-24T20:39:25.964Z,99.90
2023-02-24T20:41:55.723Z,99.90
2023-02-24T20:44:26.362Z,99.90
2023-02-24T20:46:55.953Z,99.90
2023-02-24T20:49:25.230Z,99.90
2023-02-24T20:51:54.295Z,99.90
2023-02-24T20:54:24.572Z,99.90
2023-02-24T20:56:53.564Z,99.90
2023-02-24T20:59:25.846Z,99.90
2023-02-24T21:01:54.786Z,99.90
2023-02-24T21:04:23.102Z,99.80
2023-02-24T21:06:52.403Z,98.60
2023-02-24T21:09:20.928Z,98.00
2023-02-24T21:11:49.591Z,97.60
2023-02-24T21:14:20.353Z,98.10
2023-02-24T21:16:50.092Z,98.70
2023-02-24T21:19:20.917Z,98.90
2023-02-24T21:21:49.060Z,99.10
2023-02-24T21:24:18.152Z,98.20
2023-02-24T21:26:49.045Z,98.30
2023-02-24T21:29:17.332Z,97.90
2023-02-24T21:31:45.604Z,97.70
2023-02-24T21:34:18.798Z,97.80
2023-02-24T21:36:46.681Z,97.80
2023-02-24T21:39:14.846Z,98.00
2023-02-24T21:41:43.106Z,98.20
2023-02-24T21:44:15.217Z,98.70
2023-02-24T21:46:43.377Z,98.90
2023-02-24T21:49:14.707Z,99.10
2023-02-24T21:51:42.517Z,99.40
2023-02-24T21:54:12.748Z,99.50
2023-02-24T21:56:41.295Z,99.40
2023-02-24T21:59:11.603Z,99.40
2023-02-24T22:01:44.381Z,99.20
2023-02-24T22:04:13.633Z,98.90
2023-02-24T22:06:42.868Z,98.80
2023-02-24T22:09:12.213Z,98.90
2023-02-24T22:11:41.347Z,98.40
2023-02-24T22:14:11.537Z,97.90
2023-02-24T22:16:39.909Z,97.70
2023-02-24T22:19:07.826Z,97.30
2023-02-24T22:21:35.882Z,97.90
2023-02-24T22:24:04.263Z,98.70
2023-02-24T22:26:32.317Z,99.40
2023-02-24T22:29:01.379Z,99.30
2023-02-24T22:31:31.547Z,99.70
2023-02-24T22:33:59.959Z,99.90
2023-02-24T22:36:30.943Z,99.70
2023-02-24T22:39:00.409Z,99.90
2023-02-24T22:41:33.108Z,99.90
2023-02-24T22:44:01.272Z,99.90
2023-02-24T22:46:35.141Z,99.90
2023-02-24T22:49:03.105Z,99.90
2023-02-24T22:51:31.622Z,99.90
2023-02-24T22:53:59.324Z,99.90
2023-02-24T22:56:32.439Z,99.90
2023-02-24T22:59:00.874Z,99.90
2023-02-24T23:01:31.918Z,99.90
2023-02-24T23:04:05.436Z,99.90
2023-02-24T23:06:34.121Z,99.90
2023-02-24T23:09:02.891Z,99.90
2023-02-24T23:11:32.839Z,99.90
2023-02-24T23:14:03.743Z,99.90
2023-02-24T23:16:34.054Z,99.90
2023-02-24T23:19:04.965Z,99.90
2023-02-24T23:21:39.406Z,99.90
2023-02-24T23:24:14.331Z,99.90
2023-02-24T23:26:47.985Z,99.90
2023-02-24T23:29:18.074Z,99.90
2023-02-24T23:31:46.350Z,99.90
2023-02-24T23:34:15.341Z,99.90
2023-02-24T23:36:45.499Z,99.90
2023-02-24T23:39:15.787Z,99.90
2023-02-24T23:41:44.886Z,99.90
2023-02-24T23:44:12.764Z,99.90
2023-02-24T23:46:41.842Z,99.90
2023-02-24T23:49:09.797Z,99.90
2023-02-24T23:51:48.051Z,99.90
2023-02-24T23:54:18.077Z,99.90
2023-02-24T23:56:46.887Z,99.90
2023-02-24T23:59:15.058Z,99.90
